»·PEaware :: N5312S KFAT-KMRY

N5312S :: KFAT-KMRY

FLIGHT INFORMATION

Flight Status: Arrived
Operator: Privately registered:
United States
More flights under this callsign
Pilot: Nicholas D. (22687)
Aircraft: CESSNA 172 SKYHAWK
(C172)
More flights by this aircraft type
Origin: KFAT Fresno Yosemite Intl
United States
Destination: KMRY Monterey Peninsula
United States
More flights between these airports :: More routes between these airports
Route: CZQ V230 SNS
File this flight plan on PilotEdge
Remarks:
Altitude:
(Current/Filed)
10,000ft
Speed:
(Current/Filed)
110kts
Departed: 20-Jun-19 03:39 PM
Arrived: 20-Jun-19 04:54 PM
Distance/Time
Traveled:
103nm/1:15
Distance/Time
To Go:
Arrived

Flight Plot

Page will automatically refresh every two minutes.

Flight plan parsing failed; only flown route is shown


Map Options




Map Legend


Flown Route
Filed Route
Departure Airport
Arrival Airport
Navaid (VOR, NDB)
Fix

Horizontal Profiles

Position Reports

Time Latitude Longitude Heading Altitude Ground
Speed
20-Jun-19 15:26 36.771641 -119.716857 111 339ft 0kts
20-Jun-19 15:27 36.771640 -119.716853 111 339ft 0kts
20-Jun-19 15:28 36.771639 -119.716850 111 339ft 0kts
20-Jun-19 15:29 36.771638 -119.716847 111 339ft 0kts
20-Jun-19 15:30 36.771637 -119.716843 111 339ft 0kts
20-Jun-19 15:31 36.771635 -119.716840 111 339ft 0kts
20-Jun-19 15:32 36.771634 -119.716836 111 339ft 0kts
20-Jun-19 15:33 36.771633 -119.716833 111 339ft 0kts
20-Jun-19 15:34 36.771632 -119.716830 111 339ft 0kts
20-Jun-19 15:35 36.771803 -119.715812 92 339ft 11kts
20-Jun-19 15:36 36.769721 -119.710710 32 339ft 11kts
20-Jun-19 15:37 36.769816 -119.710630 35 339ft 0kts
20-Jun-19 15:38 36.771752 -119.712616 306 339ft 49kts
20-Jun-19 15:39 36.783402 -119.732952 309 873ft 78kts
20-Jun-19 15:40 36.797403 -119.754604 312 1539ft 80kts
20-Jun-19 15:41 36.811171 -119.776637 313 2172ft 80kts
20-Jun-19 15:42 36.822428 -119.800450 287 2765ft 79kts
20-Jun-19 15:43 36.827463 -119.828819 288 3651ft 88kts
20-Jun-19 15:44 36.838944 -119.855541 293 4218ft 89kts
20-Jun-19 15:45 36.848002 -119.883257 290 5117ft 87kts
20-Jun-19 15:46 36.856990 -119.911069 285 6087ft 86kts
20-Jun-19 15:47 36.862131 -119.939948 267 6692ft 83kts
20-Jun-19 15:48 36.857547 -119.967908 254 7127ft 83kts
20-Jun-19 15:50 36.853854 -119.996354 254 7546ft 82kts
20-Jun-19 15:51 36.847443 -120.024559 248 7999ft 83kts
20-Jun-19 15:52 36.841274 -120.052508 257 8441ft 83kts
20-Jun-19 15:53 36.836763 -120.080922 258 8801ft 84kts
20-Jun-19 15:54 36.830684 -120.108442 253 9149ft 84kts
20-Jun-19 15:55 36.825629 -120.136519 257 9494ft 81kts
20-Jun-19 15:56 36.821418 -120.164639 258 9822ft 77kts
20-Jun-19 15:57 36.819464 -120.192945 267 10001ft 89kts
20-Jun-19 15:58 36.815354 -120.225543 260 10050ft 98kts
20-Jun-19 15:59 36.810729 -120.260732 261 9989ft 103kts
20-Jun-19 16:00 36.802634 -120.295098 253 10001ft 104kts
20-Jun-19 16:01 36.793464 -120.328995 253 10003ft 104kts
20-Jun-19 16:02 36.786072 -120.363884 260 10004ft 104kts
20-Jun-19 16:03 36.780493 -120.399313 258 10004ft 104kts
20-Jun-19 16:04 36.774171 -120.434688 259 10002ft 104kts
20-Jun-19 16:05 36.767950 -120.470087 259 9996ft 104kts
20-Jun-19 16:06 36.761859 -120.505334 259 10018ft 103kts
20-Jun-19 16:07 36.755877 -120.540570 259 10025ft 104kts
20-Jun-19 16:08 36.750003 -120.575826 259 10040ft 103kts
20-Jun-19 16:09 36.744263 -120.610892 259 10055ft 103kts
20-Jun-19 16:09 36.739518 -120.640163 260 10065ft 103kts
20-Jun-19 16:10 36.733915 -120.675241 260 10070ft 103kts
20-Jun-19 16:12 36.727489 -120.716246 260 10075ft 103kts
20-Jun-19 16:12 36.722629 -120.748003 260 10075ft 120kts
20-Jun-19 16:13 36.716804 -120.786759 262 10091ft 107kts
20-Jun-19 16:14 36.715072 -120.823217 265 10089ft 104kts
20-Jun-19 16:15 36.712700 -120.858890 266 10093ft 103kts
20-Jun-19 16:16 36.710455 -120.894491 266 10099ft 103kts
20-Jun-19 16:17 36.707975 -120.931099 266 10099ft 109kts
20-Jun-19 16:18 36.705336 -120.968619 266 10104ft 108kts
20-Jun-19 16:19 36.702821 -121.005783 266 10121ft 108kts
20-Jun-19 16:20 36.700333 -121.043235 267 10125ft 108kts
20-Jun-19 16:21 36.697874 -121.081858 267 10128ft 117kts
20-Jun-19 16:22 36.695428 -121.121771 267 10118ft 112kts
20-Jun-19 16:23 36.693201 -121.160961 267 9884ft 114kts
20-Jun-19 16:24 36.691152 -121.200633 267 9578ft 116kts
20-Jun-19 16:25 36.689229 -121.242258 268 9287ft 125kts
20-Jun-19 16:26 36.687533 -121.285396 267 8983ft 123kts
20-Jun-19 16:27 36.685260 -121.328154 267 8587ft 124kts
20-Jun-19 16:28 36.683089 -121.371057 267 8180ft 124kts
20-Jun-19 16:29 36.680923 -121.413975 266 7786ft 125kts
20-Jun-19 16:30 36.677027 -121.457493 263 7382ft 126kts
20-Jun-19 16:31 36.672222 -121.500948 262 6975ft 126kts
20-Jun-19 16:32 36.666453 -121.544167 262 6572ft 126kts
20-Jun-19 16:33 36.661142 -121.587330 269 6168ft 125kts
20-Jun-19 16:34 36.664283 -121.628884 285 5997ft 114kts
20-Jun-19 16:35 36.671883 -121.666984 286 5928ft 117kts
20-Jun-19 16:36 36.680941 -121.707725 287 5484ft 124kts
20-Jun-19 16:37 36.689663 -121.748386 284 4981ft 118kts
20-Jun-19 16:38 36.699607 -121.787953 288 4482ft 118kts
20-Jun-19 16:39 36.706446 -121.827251 277 4043ft 116kts
20-Jun-19 16:40 36.712012 -121.866060 278 3526ft 106kts
20-Jun-19 16:41 36.716456 -121.901520 277 3036ft 102kts
20-Jun-19 16:42 36.721168 -121.933398 280 3023ft 85kts
20-Jun-19 16:43 36.726044 -121.962774 275 3037ft 89kts
20-Jun-19 16:44 36.730736 -121.993544 275 2993ft 88kts
20-Jun-19 16:45 36.722596 -122.018248 209 2973ft 90kts
20-Jun-19 16:46 36.700263 -122.032581 202 3034ft 89kts
20-Jun-19 16:47 36.677848 -122.018204 146 2964ft 97kts
20-Jun-19 16:48 36.654047 -121.999580 151 2554ft 104kts
20-Jun-19 16:49 36.632427 -121.975882 116 2247ft 108kts
20-Jun-19 16:50 36.618971 -121.941068 117 1694ft 121kts
20-Jun-19 16:51 36.607691 -121.904997 118 1114ft 102kts
20-Jun-19 16:52 36.597214 -121.874247 117 611ft 83kts
20-Jun-19 16:53 36.589816 -121.852713 115 260ft 34kts
20-Jun-19 16:54 36.587645 -121.850830 206 260ft 0kts

Navigation Log

Ident Type
Flight plan parsing failed, navigation log unavailable